createdAt,value
2023-02-02T00:02:08.154Z,14.50
2023-02-02T00:04:38.520Z,15.93
2023-02-02T00:07:09.922Z,14.13
2023-02-02T00:09:40.251Z,16.27
2023-02-02T00:12:11.671Z,29.75
2023-02-02T00:14:42.401Z,33.47
2023-02-02T00:17:13.656Z,34.08
2023-02-02T00:19:47.644Z,29.45
2023-02-02T00:22:20.534Z,28.70
2023-02-02T00:24:50.754Z,26.42
2023-02-02T00:27:23.453Z,25.25
2023-02-02T00:29:54.697Z,23.17
2023-02-02T00:32:25.922Z,20.95
2023-02-02T00:34:59.357Z,21.30
2023-02-02T00:37:30.017Z,20.33
2023-02-02T00:40:00.768Z,19.33
2023-02-02T00:42:32.266Z,20.05
2023-02-02T00:45:18.790Z,19.13
2023-02-02T00:47:50.745Z,22.35
2023-02-02T00:50:22.917Z,26.83
2023-02-02T00:52:54.199Z,18.13
2023-02-02T00:55:25.188Z,23.90
2023-02-02T00:57:56.039Z,20.10
2023-02-02T01:00:28.168Z,18.13
2023-02-02T01:03:05.207Z,23.42
2023-02-02T01:05:38.523Z,17.00
2023-02-02T01:08:09.478Z,16.75
2023-02-02T01:10:40.506Z,15.88
2023-02-02T01:13:10.913Z,14.68
2023-02-02T01:15:41.504Z,13.90
2023-02-02T01:18:12.278Z,10.10
2023-02-02T01:20:42.978Z,7.43
2023-02-02T01:23:16.595Z,7.72
2023-02-02T01:25:47.854Z,6.68
2023-02-02T01:28:18.516Z,6.57
2023-02-02T01:30:49.932Z,9.43
2023-02-02T01:33:20.732Z,8.20
2023-02-02T01:35:57.426Z,6.78
2023-02-02T01:38:27.952Z,6.47
2023-02-02T01:40:59.360Z,6.95
2023-02-02T01:43:50.456Z,5.32
2023-02-02T01:46:24.313Z,5.50
2023-02-02T01:49:18.244Z,5.78
2023-02-02T01:52:07.903Z,5.70
2023-02-02T01:54:45.616Z,7.50
2023-02-02T01:57:24.937Z,4.80
2023-02-02T01:59:57.036Z,3.28
2023-02-02T02:02:28.977Z,4.63
2023-02-02T02:05:02.986Z,4.05
2023-02-02T02:07:33.857Z,3.00
2023-02-02T02:10:04.434Z,3.53
2023-02-02T02:12:35.729Z,3.67
2023-02-02T02:15:26.587Z,5.20
2023-02-02T02:18:13.367Z,4.28
2023-02-02T02:21:23.155Z,3.63
2023-02-02T02:24:42.859Z,3.63
2023-02-02T02:27:43.440Z,3.65
2023-02-02T02:30:17.269Z,3.70
2023-02-02T02:33:15.156Z,2.40
2023-02-02T02:36:06.939Z,3.00
2023-02-02T02:38:44.729Z,3.28
2023-02-02T02:41:23.639Z,2.70
2023-02-02T02:44:00.733Z,2.70
2023-02-02T02:46:32.561Z,2.65
2023-02-02T02:49:04.122Z,2.70
2023-02-02T02:51:54.621Z,2.25
2023-02-02T02:54:44.158Z,2.65
2023-02-02T02:57:36.285Z,2.63
2023-02-02T03:00:28.394Z,2.05
2023-02-02T03:03:16.316Z,2.50
2023-02-02T03:05:56.251Z,1.90
2023-02-02T03:08:42.551Z,2.00
2023-02-02T03:11:15.672Z,2.25
2023-02-02T03:13:46.330Z,2.22
2023-02-02T03:16:18.414Z,8.77
2023-02-02T03:18:48.929Z,10.85
2023-02-02T03:21:21.939Z,2.40
2023-02-02T03:23:52.563Z,2.20
2023-02-02T03:26:23.759Z,2.65
2023-02-02T03:28:56.228Z,2.70
2023-02-02T03:31:31.803Z,2.58
2023-02-02T03:34:02.765Z,2.50
2023-02-02T03:36:33.935Z,2.08
2023-02-02T03:39:04.913Z,2.13
2023-02-02T03:41:35.945Z,2.53
2023-02-02T03:44:07.005Z,1.80
2023-02-02T03:46:37.821Z,1.80
2023-02-02T03:49:08.607Z,1.92
2023-02-02T03:51:40.370Z,1.88
2023-02-02T03:54:12.085Z,1.85
2023-02-02T03:56:43.607Z,1.90
2023-02-02T03:59:14.865Z,1.90
2023-02-02T04:01:45.658Z,1.80
2023-02-02T04:04:16.751Z,1.70
2023-02-02T04:06:51.220Z,7.20
2023-02-02T04:09:22.339Z,14.00
2023-02-02T04:11:52.802Z,14.52
2023-02-02T04:14:23.377Z,16.38
2023-02-02T04:16:54.482Z,15.73
2023-02-02T04:19:25.084Z,16.55
2023-02-02T04:21:56.179Z,16.30
2023-02-02T04:24:27.927Z,17.35
2023-02-02T04:26:58.631Z,16.52
2023-02-02T04:29:30.750Z,17.85
2023-02-02T04:32:01.633Z,17.70
2023-02-02T04:34:34.909Z,19.33
2023-02-02T04:37:05.385Z,17.77
2023-02-02T04:39:35.975Z,18.10
2023-02-02T04:42:08.420Z,15.27
2023-02-02T04:44:39.103Z,16.40
2023-02-02T04:47:10.162Z,15.95
2023-02-02T04:49:44.379Z,14.88
2023-02-02T04:52:15.507Z,14.15
2023-02-02T04:54:46.577Z,13.50
2023-02-02T04:57:17.110Z,13.05
2023-02-02T04:59:48.100Z,12.02
2023-02-02T05:02:18.926Z,12.25
2023-02-02T05:04:49.453Z,11.82
2023-02-02T05:07:29.861Z,11.10
2023-02-02T05:10:01.172Z,10.35
2023-02-02T05:12:32.311Z,10.93
2023-02-02T05:15:04.459Z,10.90
2023-02-02T05:17:34.830Z,9.98
2023-02-02T05:20:06.436Z,9.63
2023-02-02T05:22:36.912Z,9.00
2023-02-02T05:25:08.881Z,8.57
2023-02-02T05:27:39.812Z,8.20
2023-02-02T05:30:14.862Z,7.10
2023-02-02T05:32:47.076Z,7.32
2023-02-02T05:35:17.828Z,8.25
2023-02-02T05:37:48.878Z,7.45
2023-02-02T05:40:19.751Z,9.43
2023-02-02T05:42:53.151Z,9.40
2023-02-02T05:45:26.844Z,8.80
2023-02-02T05:47:57.754Z,7.90
2023-02-02T05:50:28.476Z,7.50
2023-02-02T05:53:08.014Z,7.40
2023-02-02T05:55:38.762Z,7.85
2023-02-02T05:58:09.565Z,6.97
2023-02-02T06:00:43.449Z,8.32
2023-02-02T06:03:14.784Z,7.53
2023-02-02T06:05:45.828Z,7.80
2023-02-02T06:08:16.414Z,7.88
2023-02-02T06:10:47.485Z,9.55
2023-02-02T06:13:17.925Z,9.05
2023-02-02T06:15:48.441Z,8.07
2023-02-02T06:18:30.892Z,9.13
2023-02-02T06:21:02.567Z,7.00
2023-02-02T06:23:34.951Z,6.78
2023-02-02T06:26:05.809Z,6.45
2023-02-02T06:28:37.121Z,6.15
2023-02-02T06:31:09.613Z,6.75
2023-02-02T06:33:41.247Z,6.18
2023-02-02T06:36:11.718Z,6.78
2023-02-02T06:38:42.734Z,5.70
2023-02-02T06:41:13.864Z,4.93
2023-02-02T06:43:44.280Z,5.97
2023-02-02T06:46:14.886Z,6.25
2023-02-02T06:48:45.314Z,5.95
2023-02-02T06:51:18.559Z,4.70
2023-02-02T06:53:50.538Z,4.72
2023-02-02T06:56:28.432Z,5.22
2023-02-02T06:58:59.303Z,5.57
2023-02-02T07:01:30.199Z,6.43
2023-02-02T07:04:01.022Z,8.20
2023-02-02T07:06:31.928Z,5.35
2023-02-02T07:09:03.568Z,4.40
2023-02-02T07:11:37.354Z,5.60
2023-02-02T07:14:10.387Z,5.53
2023-02-02T07:16:44.403Z,6.72
2023-02-02T07:19:15.241Z,5.55
2023-02-02T07:21:46.615Z,5.55
2023-02-02T07:24:18.038Z,5.93
2023-02-02T07:26:48.626Z,5.47
2023-02-02T07:29:21.614Z,7.18
2023-02-02T07:31:52.809Z,6.72
2023-02-02T07:34:23.823Z,6.30
2023-02-02T07:36:56.422Z,5.68
2023-02-02T07:39:27.232Z,6.05
2023-02-02T07:41:58.236Z,5.50
2023-02-02T07:44:37.757Z,5.85
2023-02-02T07:47:09.271Z,6.85
2023-02-02T07:49:40.027Z,6.97
2023-02-02T07:52:10.486Z,5.80
2023-02-02T07:54:41.038Z,5.57
2023-02-02T07:57:14.124Z,6.05
2023-02-02T07:59:44.760Z,5.18
2023-02-02T08:02:15.232Z,4.75
2023-02-02T08:04:46.386Z,6.30
2023-02-02T08:07:17.635Z,7.75
2023-02-02T08:09:49.508Z,4.57
2023-02-02T08:12:24.883Z,4.28
2023-02-02T08:14:56.744Z,4.30
2023-02-02T08:17:30.489Z,5.93
2023-02-02T08:20:01.291Z,5.10
2023-02-02T08:22:35.676Z,5.00
2023-02-02T08:25:06.670Z,5.47
2023-02-02T08:27:39.159Z,5.57
2023-02-02T08:30:10.871Z,6.25
2023-02-02T08:32:41.384Z,5.35
2023-02-02T08:35:11.889Z,6.00
2023-02-02T08:37:42.686Z,4.32
2023-02-02T08:40:14.292Z,4.43
2023-02-02T08:42:47.190Z,5.05
2023-02-02T08:46:01.996Z,4.97
2023-02-02T08:48:11.977Z,13.57
2023-02-02T08:50:43.008Z,7.75
2023-02-02T08:53:13.589Z,5.53
2023-02-02T08:55:47.040Z,4.50
2023-02-02T08:58:17.690Z,5.13
2023-02-02T09:00:51.755Z,4.07
2023-02-02T09:03:23.520Z,4.47
2023-02-02T09:05:53.917Z,4.80
2023-02-02T09:08:24.641Z,5.75
2023-02-02T09:10:55.772Z,6.25
2023-02-02T09:13:26.897Z,5.70
2023-02-02T09:16:01.937Z,5.15
2023-02-02T09:18:32.690Z,4.30
2023-02-02T09:21:06.382Z,5.10
2023-02-02T09:23:39.428Z,3.13
2023-02-02T09:26:16.284Z,3.78
2023-02-02T09:28:55.642Z,4.45
2023-02-02T09:31:28.123Z,4.22
2023-02-02T09:34:05.315Z,6.30
2023-02-02T09:36:36.160Z,6.93
2023-02-02T09:39:08.496Z,19.15
2023-02-02T09:41:41.845Z,21.48
2023-02-02T09:44:36.672Z,7.40
2023-02-02T09:47:39.487Z,10.80
2023-02-02T09:50:41.539Z,16.38
2023-02-02T09:53:14.932Z,21.17
2023-02-02T09:55:52.254Z,17.02
2023-02-02T09:58:34.472Z,9.73
2023-02-02T10:01:21.820Z,13.35
2023-02-02T10:04:11.765Z,11.18
2023-02-02T10:06:47.918Z,15.68
2023-02-02T10:09:27.448Z,9.15
2023-02-02T10:12:18.813Z,14.63
2023-02-02T10:15:25.356Z,10.05
2023-02-02T10:18:06.208Z,20.77
2023-02-02T10:21:26.353Z,16.50
2023-02-02T10:24:01.282Z,13.35
2023-02-02T10:26:48.431Z,12.38
2023-02-02T10:29:48.016Z,12.38
2023-02-02T10:32:37.951Z,14.85
2023-02-02T10:35:15.001Z,14.82
2023-02-02T10:38:23.898Z,14.50
2023-02-02T10:41:08.888Z,15.25
2023-02-02T10:43:48.532Z,11.02
2023-02-02T10:46:26.605Z,13.02
2023-02-02T10:49:24.477Z,10.93
2023-02-02T10:52:14.808Z,11.57
2023-02-02T10:55:02.891Z,18.80
2023-02-02T10:57:55.537Z,13.23
2023-02-02T11:00:59.283Z,15.38
2023-02-02T11:03:35.782Z,18.35
2023-02-02T11:06:27.741Z,17.00
2023-02-02T11:09:00.468Z,12.23
2023-02-02T11:11:46.386Z,13.30
2023-02-02T11:15:16.937Z,15.27
2023-02-02T11:17:48.778Z,14.30
2023-02-02T11:20:38.134Z,12.73
2023-02-02T11:23:20.146Z,11.65
2023-02-02T11:26:00.566Z,13.85
2023-02-02T11:28:35.733Z,13.30
2023-02-02T11:31:07.240Z,11.52
2023-02-02T11:33:38.439Z,8.35
2023-02-02T11:36:25.409Z,4.03
2023-02-02T11:39:21.850Z,3.70
2023-02-02T11:41:53.138Z,5.05
2023-02-02T11:44:29.736Z,4.45
2023-02-02T11:47:01.706Z,3.95
2023-02-02T11:49:34.914Z,3.97
2023-02-02T11:52:18.346Z,3.85
2023-02-02T11:54:51.796Z,3.60
2023-02-02T11:57:24.134Z,2.83
2023-02-02T12:00:12.717Z,3.55
2023-02-02T12:02:52.314Z,3.42
2023-02-02T12:05:24.676Z,3.30
2023-02-02T12:07:56.077Z,2.85
2023-02-02T12:10:44.953Z,3.72
2023-02-02T12:13:30.403Z,3.47
2023-02-02T12:16:10.479Z,3.10
2023-02-02T12:18:46.785Z,3.58
2023-02-02T12:21:54.930Z,8.30
2023-02-02T12:24:37.602Z,15.30
2023-02-02T12:27:32.548Z,11.48
2023-02-02T12:30:25.556Z,8.98
2023-02-02T12:33:23.101Z,8.93
2023-02-02T12:36:12.724Z,6.38
2023-02-02T12:38:59.230Z,4.72
2023-02-02T12:42:03.406Z,5.07
2023-02-02T12:44:51.697Z,5.97
2023-02-02T12:47:29.650Z,4.28
2023-02-02T12:50:06.642Z,3.90
2023-02-02T12:52:48.230Z,3.72
2023-02-02T12:55:25.522Z,4.40
2023-02-02T12:58:05.195Z,4.70
2023-02-02T13:01:06.203Z,4.32
2023-02-02T13:03:47.273Z,4.75
2023-02-02T13:06:35.163Z,3.70
2023-02-02T13:09:14.360Z,4.15
2023-02-02T13:12:00.009Z,3.65
2023-02-02T13:14:47.137Z,5.90
2023-02-02T13:17:24.081Z,6.00
2023-02-02T13:19:59.966Z,4.65
2023-02-02T13:22:35.746Z,3.92
2023-02-02T13:25:12.086Z,3.45
2023-02-02T13:27:43.652Z,3.50
2023-02-02T13:30:36.011Z,3.55
2023-02-02T13:33:24.824Z,3.60
2023-02-02T13:36:08.105Z,2.85
2023-02-02T13:38:43.125Z,3.00
2023-02-02T13:41:14.468Z,2.83
2023-02-02T13:44:26.128Z,2.50
2023-02-02T13:47:07.768Z,2.85
2023-02-02T13:49:44.250Z,2.75
2023-02-02T13:52:43.070Z,2.50
2023-02-02T13:55:17.533Z,2.78
2023-02-02T13:57:53.199Z,2.40
2023-02-02T14:00:27.825Z,2.20
2023-02-02T14:03:07.425Z,2.08
2023-02-02T14:05:43.432Z,2.78
2023-02-02T14:08:20.215Z,3.00
2023-02-02T14:10:53.539Z,3.30
2023-02-02T14:13:45.401Z,3.08
2023-02-02T14:16:43.935Z,3.45
2023-02-02T14:19:30.370Z,3.30
2023-02-02T14:22:06.962Z,3.45
2023-02-02T14:24:38.434Z,3.22
2023-02-02T14:27:09.388Z,3.55
2023-02-02T14:29:48.550Z,2.53
2023-02-02T14:32:29.379Z,2.45
2023-02-02T14:35:15.906Z,2.38
2023-02-02T14:38:05.869Z,2.20
2023-02-02T14:41:05.722Z,2.60
2023-02-02T14:43:51.939Z,2.70
2023-02-02T14:46:35.709Z,2.10
2023-02-02T14:49:08.035Z,2.08
2023-02-02T14:51:49.442Z,2.22
2023-02-02T14:54:41.867Z,2.03
2023-02-02T14:57:30.180Z,2.20
2023-02-02T15:00:04.729Z,2.00
2023-02-02T15:02:39.559Z,1.95
2023-02-02T15:05:31.658Z,2.22
2023-02-02T15:08:16.926Z,2.13
2023-02-02T15:10:55.551Z,2.20
2023-02-02T15:13:30.422Z,3.42
2023-02-02T15:16:14.899Z,2.70
2023-02-02T15:18:53.819Z,2.78
2023-02-02T15:21:24.797Z,2.72
2023-02-02T15:23:55.968Z,2.50
2023-02-02T15:26:36.239Z,2.60
2023-02-02T15:29:17.941Z,3.33
2023-02-02T15:31:51.287Z,3.80
2023-02-02T15:34:44.215Z,3.67
2023-02-02T15:37:21.560Z,3.90
2023-02-02T15:39:59.119Z,3.53
2023-02-02T15:42:54.840Z,3.40
2023-02-02T15:45:44.281Z,3.53
2023-02-02T15:48:32.201Z,3.42
2023-02-02T15:51:18.703Z,3.60
2023-02-02T15:53:53.246Z,3.13
2023-02-02T15:56:26.038Z,3.20
2023-02-02T15:58:59.593Z,3.28
2023-02-02T16:01:33.927Z,3.40
2023-02-02T16:04:28.221Z,3.60
2023-02-02T16:06:59.148Z,3.25
2023-02-02T16:09:36.095Z,4.35
2023-02-02T16:12:09.929Z,9.73
2023-02-02T16:14:40.964Z,10.52
2023-02-02T16:17:30.087Z,10.68
2023-02-02T16:20:09.448Z,9.25
2023-02-02T16:22:41.303Z,9.93
2023-02-02T16:25:18.076Z,9.15
2023-02-02T16:27:49.639Z,9.73
2023-02-02T16:30:46.875Z,8.00
2023-02-02T16:33:35.467Z,8.50
2023-02-02T16:36:32.911Z,10.27
2023-02-02T16:39:17.148Z,10.77
2023-02-02T16:41:53.026Z,12.93
2023-02-02T16:44:34.219Z,12.75
2023-02-02T16:47:05.359Z,12.90
2023-02-02T16:49:36.118Z,13.70
2023-02-02T16:52:18.468Z,13.05
2023-02-02T16:54:54.462Z,13.65
2023-02-02T16:57:33.971Z,13.27
2023-02-02T17:00:08.448Z,12.55
2023-02-02T17:02:41.129Z,14.00
2023-02-02T17:05:23.263Z,14.40
2023-02-02T17:07:59.500Z,15.45
2023-02-02T17:10:37.463Z,16.77
2023-02-02T17:13:33.277Z,16.98
2023-02-02T17:16:04.560Z,19.02
2023-02-02T17:18:35.196Z,19.48
2023-02-02T17:21:25.120Z,19.25
2023-02-02T17:23:55.521Z,18.73
2023-02-02T17:26:25.913Z,20.42
2023-02-02T17:28:57.622Z,18.02
2023-02-02T17:31:28.490Z,18.85
2023-02-02T17:33:58.866Z,18.17
2023-02-02T17:36:30.217Z,17.58
2023-02-02T17:39:00.555Z,15.77
2023-02-02T17:41:30.973Z,16.23
2023-02-02T17:44:01.800Z,17.35
2023-02-02T17:46:33.379Z,16.50
2023-02-02T17:49:03.966Z,17.13
2023-02-02T17:51:42.050Z,17.25
2023-02-02T17:54:13.817Z,15.02
2023-02-02T17:56:45.021Z,14.98
2023-02-02T17:59:15.277Z,15.02
2023-02-02T18:01:46.635Z,15.10
2023-02-02T18:04:17.675Z,14.27
2023-02-02T18:06:48.046Z,14.05
2023-02-02T18:09:19.105Z,14.43
2023-02-02T18:11:50.819Z,12.65
2023-02-02T18:14:21.526Z,12.70
2023-02-02T18:16:52.106Z,12.05
2023-02-02T18:19:22.295Z,10.85
2023-02-02T18:21:53.223Z,11.68
2023-02-02T18:24:23.377Z,9.35
2023-02-02T18:26:53.921Z,9.57
2023-02-02T18:29:25.153Z,9.82
2023-02-02T18:31:55.727Z,11.35
2023-02-02T18:34:26.920Z,11.10
2023-02-02T18:36:57.266Z,9.80
2023-02-02T18:39:28.299Z,9.10
2023-02-02T18:41:59.716Z,9.38
2023-02-02T18:44:30.522Z,7.80
2023-02-02T18:47:00.934Z,7.90
2023-02-02T18:49:31.786Z,7.47
2023-02-02T18:52:03.336Z,7.90
2023-02-02T18:54:36.596Z,8.30
2023-02-02T18:57:06.825Z,7.88
2023-02-02T18:59:37.328Z,8.68
2023-02-02T19:02:09.528Z,8.07
2023-02-02T19:04:40.364Z,8.02
2023-02-02T19:07:28.996Z,8.88
2023-02-02T19:10:02.209Z,7.60
2023-02-02T19:12:32.798Z,10.40
2023-02-02T19:15:04.394Z,11.45
2023-02-02T19:17:34.807Z,12.68
2023-02-02T19:20:23.462Z,15.85
2023-02-02T19:23:19.427Z,19.77
2023-02-02T19:25:52.321Z,18.95
2023-02-02T19:28:30.106Z,14.63
2023-02-02T19:31:03.006Z,14.35
2023-02-02T19:33:50.292Z,14.50
2023-02-02T19:36:26.302Z,13.15
2023-02-02T19:39:21.182Z,12.13
2023-02-02T19:41:52.491Z,12.10
2023-02-02T19:44:24.727Z,12.73
2023-02-02T19:46:57.655Z,11.82
2023-02-02T19:49:28.293Z,10.70
2023-02-02T19:52:00.386Z,10.75
2023-02-02T19:54:37.644Z,11.32
2023-02-02T19:57:17.043Z,10.35
2023-02-02T19:59:49.958Z,9.75
2023-02-02T20:02:56.686Z,8.82
2023-02-02T20:05:34.836Z,7.75
2023-02-02T20:08:25.061Z,8.25
2023-02-02T20:10:57.702Z,7.97
2023-02-02T20:13:33.914Z,7.35
2023-02-02T20:16:05.962Z,7.95
2023-02-02T20:19:10.822Z,7.95
2023-02-02T20:21:45.260Z,7.00
2023-02-02T20:24:19.961Z,6.50
2023-02-02T20:27:09.772Z,5.97
2023-02-02T20:29:44.415Z,6.60
2023-02-02T20:32:27.448Z,7.65
2023-02-02T20:35:00.176Z,7.00
2023-02-02T20:37:37.601Z,7.28
2023-02-02T20:40:26.751Z,7.75
2023-02-02T20:42:59.285Z,7.63
2023-02-02T20:45:29.974Z,8.05
2023-02-02T20:48:00.719Z,7.85
2023-02-02T20:50:31.032Z,8.98
2023-02-02T20:53:01.618Z,8.95
2023-02-02T20:55:32.480Z,9.40
2023-02-02T20:58:04.667Z,8.43
2023-02-02T21:00:35.393Z,8.68
2023-02-02T21:03:06.627Z,8.93
2023-02-02T21:05:37.950Z,8.80
2023-02-02T21:08:08.458Z,8.50
2023-02-02T21:10:39.156Z,8.05
2023-02-02T21:13:09.915Z,8.30
2023-02-02T21:15:40.553Z,8.25
2023-02-02T21:18:11.272Z,8.27
2023-02-02T21:20:42.200Z,8.00
2023-02-02T21:23:15.431Z,7.80
2023-02-02T21:25:46.024Z,8.73
2023-02-02T21:28:16.400Z,8.55
2023-02-02T21:30:46.847Z,8.77
2023-02-02T21:33:18.453Z,9.85
2023-02-02T21:35:48.860Z,10.35
2023-02-02T21:38:19.354Z,9.52
2023-02-02T21:40:51.042Z,10.98
2023-02-02T21:43:21.496Z,14.43
2023-02-02T21:45:52.658Z,18.85
2023-02-02T21:48:31.184Z,15.63
2023-02-02T21:51:18.035Z,12.05
2023-02-02T21:53:48.526Z,10.82
2023-02-02T21:56:39.892Z,9.70
2023-02-02T21:59:39.451Z,10.55
2023-02-02T22:02:43.330Z,9.20
2023-02-02T22:05:15.171Z,9.82
2023-02-02T22:07:49.300Z,10.00
2023-02-02T22:10:25.376Z,11.45
2023-02-02T22:12:56.306Z,12.10
2023-02-02T22:15:30.672Z,13.20
2023-02-02T22:18:01.365Z,14.32
2023-02-02T22:20:36.760Z,14.10
2023-02-02T22:23:09.806Z,15.50
2023-02-02T22:25:42.279Z,13.88
2023-02-02T22:28:50.699Z,15.90
2023-02-02T22:31:21.062Z,18.08
2023-02-02T22:33:51.656Z,16.77
2023-02-02T22:36:22.401Z,16.40
2023-02-02T22:38:53.618Z,16.92
2023-02-02T22:41:23.838Z,19.33
2023-02-02T22:43:57.524Z,16.88
2023-02-02T22:46:27.941Z,18.38
2023-02-02T22:48:58.525Z,16.05
2023-02-02T22:51:29.548Z,19.08
2023-02-02T22:54:00.425Z,17.20
2023-02-02T22:56:31.231Z,13.20
2023-02-02T22:59:02.643Z,12.32
2023-02-02T23:01:33.191Z,10.48
2023-02-02T23:04:03.575Z,12.27
2023-02-02T23:06:34.226Z,13.50
2023-02-02T23:09:06.936Z,13.23
2023-02-02T23:11:37.373Z,13.55
2023-02-02T23:14:08.795Z,14.73
2023-02-02T23:16:39.512Z,14.63
2023-02-02T23:19:09.836Z,11.73
2023-02-02T23:21:40.104Z,9.95
2023-02-02T23:24:11.051Z,9.00
2023-02-02T23:26:43.982Z,9.70
2023-02-02T23:29:14.328Z,10.20
2023-02-02T23:31:45.400Z,9.52
2023-02-02T23:34:15.871Z,8.13
2023-02-02T23:37:06.684Z,9.63
2023-02-02T23:39:37.746Z,8.77
2023-02-02T23:42:08.159Z,8.10
2023-02-02T23:44:39.750Z,7.18
2023-02-02T23:47:11.117Z,7.80
2023-02-02T23:49:41.945Z,8.75
2023-02-02T23:52:15.439Z,8.82
2023-02-02T23:54:47.816Z,9.95
2023-02-02T23:57:21.703Z,10.55
2023-02-02T23:59:52.351Z,11.05
